sensor_id;sensor_type;location;lat;lon;timestamp;P1;durP1;ratioP1;P2;durP2;ratioP2
17026;SDS011;8630;50.500;12.164;2022-07-29T00:01:01;4.68;;;3.60;;
17026;SDS011;8630;50.500;12.164;2022-07-29T00:03:28;5.70;;;3.80;;
17026;SDS011;8630;50.500;12.164;2022-07-29T00:05:55;6.68;;;4.10;;
17026;SDS011;8630;50.500;12.164;2022-07-29T00:08:23;5.95;;;3.90;;
17026;SDS011;8630;50.500;12.164;2022-07-29T00:10:52;5.63;;;3.80;;
17026;SDS011;8630;50.500;12.164;2022-07-29T00:13:19;5.53;;;3.25;;
17026;SDS011;8630;50.500;12.164;2022-07-29T00:15:46;6.47;;;3.30;;
17026;SDS011;8630;50.500;12.164;2022-07-29T00:18:14;6.70;;;3.88;;
17026;SDS011;8630;50.500;12.164;2022-07-29T00:20:41;6.13;;;3.92;;
17026;SDS011;8630;50.500;12.164;2022-07-29T00:23:08;8.82;;;4.25;;
17026;SDS011;8630;50.500;12.164;2022-07-29T00:25:35;7.07;;;3.47;;
17026;SDS011;8630;50.500;12.164;2022-07-29T00:28:05;8.65;;;3.80;;
17026;SDS011;8630;50.500;12.164;2022-07-29T00:30:32;5.40;;;3.90;;
17026;SDS011;8630;50.500;12.164;2022-07-29T00:32:59;5.35;;;3.22;;
17026;SDS011;8630;50.500;12.164;2022-07-29T00:35:26;4.88;;;3.67;;
17026;SDS011;8630;50.500;12.164;2022-07-29T00:38:10;6.13;;;3.80;;
17026;SDS011;8630;50.500;12.164;2022-07-29T00:40:38;5.93;;;3.65;;
17026;SDS011;8630;50.500;12.164;2022-07-29T00:43:07;6.03;;;3.80;;
17026;SDS011;8630;50.500;12.164;2022-07-29T00:45:35;6.32;;;3.80;;
17026;SDS011;8630;50.500;12.164;2022-07-29T00:48:03;5.20;;;3.83;;
17026;SDS011;8630;50.500;12.164;2022-07-29T00:50:31;7.03;;;4.00;;
17026;SDS011;8630;50.500;12.164;2022-07-29T00:52:58;6.05;;;3.88;;
17026;SDS011;8630;50.500;12.164;2022-07-29T00:55:26;5.38;;;3.90;;
17026;SDS011;8630;50.500;12.164;2022-07-29T00:57:54;5.63;;;3.65;;
17026;SDS011;8630;50.500;12.164;2022-07-29T01:00:24;7.97;;;4.30;;
17026;SDS011;8630;50.500;12.164;2022-07-29T01:02:52;5.32;;;3.63;;
17026;SDS011;8630;50.500;12.164;2022-07-29T01:05:19;6.82;;;4.40;;
17026;SDS011;8630;50.500;12.164;2022-07-29T01:07:48;5.88;;;3.70;;
17026;SDS011;8630;50.500;12.164;2022-07-29T01:10:19;3.53;;;2.72;;
17026;SDS011;8630;50.500;12.164;2022-07-29T01:12:48;5.82;;;2.45;;
17026;SDS011;8630;50.500;12.164;2022-07-29T01:15:16;4.28;;;2.25;;
17026;SDS011;8630;50.500;12.164;2022-07-29T01:17:46;4.20;;;2.83;;
17026;SDS011;8630;50.500;12.164;2022-07-29T01:20:23;5.28;;;2.58;;
17026;SDS011;8630;50.500;12.164;2022-07-29T01:23:14;4.05;;;2.70;;
17026;SDS011;8630;50.500;12.164;2022-07-29T01:26:06;5.70;;;2.90;;
17026;SDS011;8630;50.500;12.164;2022-07-29T01:29:00;4.28;;;3.40;;
17026;SDS011;8630;50.500;12.164;2022-07-29T01:31:31;6.47;;;3.65;;
17026;SDS011;8630;50.500;12.164;2022-07-29T01:34:05;6.43;;;3.30;;
17026;SDS011;8630;50.500;12.164;2022-07-29T01:36:35;4.28;;;3.38;;
17026;SDS011;8630;50.500;12.164;2022-07-29T01:39:06;4.22;;;3.33;;
17026;SDS011;8630;50.500;12.164;2022-07-29T01:41:38;4.75;;;3.20;;
17026;SDS011;8630;50.500;12.164;2022-07-29T01:44:17;5.00;;;3.50;;
17026;SDS011;8630;50.500;12.164;2022-07-29T01:46:49;5.72;;;3.47;;
17026;SDS011;8630;50.500;12.164;2022-07-29T01:49:21;6.70;;;3.85;;
17026;SDS011;8630;50.500;12.164;2022-07-29T01:51:53;7.75;;;3.58;;
17026;SDS011;8630;50.500;12.164;2022-07-29T01:54:26;5.07;;;3.38;;
17026;SDS011;8630;50.500;12.164;2022-07-29T01:56:58;5.40;;;3.55;;
17026;SDS011;8630;50.500;12.164;2022-07-29T01:59:28;6.10;;;3.83;;
17026;SDS011;8630;50.500;12.164;2022-07-29T02:01:57;7.38;;;3.92;;
17026;SDS011;8630;50.500;12.164;2022-07-29T02:04:25;6.32;;;3.42;;
17026;SDS011;8630;50.500;12.164;2022-07-29T02:06:56;6.72;;;3.38;;
17026;SDS011;8630;50.500;12.164;2022-07-29T02:09:26;5.00;;;3.42;;
17026;SDS011;8630;50.500;12.164;2022-07-29T02:11:56;3.80;;;3.03;;
17026;SDS011;8630;50.500;12.164;2022-07-29T02:14:28;4.63;;;3.58;;
17026;SDS011;8630;50.500;12.164;2022-07-29T02:16:59;5.80;;;3.85;;
17026;SDS011;8630;50.500;12.164;2022-07-29T02:19:27;10.55;;;4.28;;
17026;SDS011;8630;50.500;12.164;2022-07-29T02:21:57;6.40;;;3.30;;
17026;SDS011;8630;50.500;12.164;2022-07-29T02:24:27;5.65;;;3.50;;
17026;SDS011;8630;50.500;12.164;2022-07-29T02:26:56;5.20;;;3.60;;
17026;SDS011;8630;50.500;12.164;2022-07-29T02:29:28;6.13;;;3.63;;
17026;SDS011;8630;50.500;12.164;2022-07-29T02:31:58;4.55;;;3.08;;
17026;SDS011;8630;50.500;12.164;2022-07-29T02:34:28;9.43;;;3.55;;
17026;SDS011;8630;50.500;12.164;2022-07-29T02:36:57;4.93;;;3.25;;
17026;SDS011;8630;50.500;12.164;2022-07-29T02:39:26;6.90;;;3.40;;
17026;SDS011;8630;50.500;12.164;2022-07-29T02:41:55;6.35;;;3.67;;
17026;SDS011;8630;50.500;12.164;2022-07-29T02:44:27;7.72;;;3.45;;
17026;SDS011;8630;50.500;12.164;2022-07-29T02:46:56;5.65;;;3.35;;
17026;SDS011;8630;50.500;12.164;2022-07-29T02:49:30;5.35;;;3.30;;
17026;SDS011;8630;50.500;12.164;2022-07-29T02:52:03;3.83;;;3.05;;
17026;SDS011;8630;50.500;12.164;2022-07-29T02:54:34;4.32;;;3.22;;
17026;SDS011;8630;50.500;12.164;2022-07-29T02:57:08;5.93;;;3.20;;
17026;SDS011;8630;50.500;12.164;2022-07-29T02:59:41;4.20;;;3.08;;
17026;SDS011;8630;50.500;12.164;2022-07-29T03:02:12;4.15;;;3.17;;
17026;SDS011;8630;50.500;12.164;2022-07-29T03:04:41;5.85;;;3.35;;
17026;SDS011;8630;50.500;12.164;2022-07-29T03:07:10;6.00;;;3.15;;
17026;SDS011;8630;50.500;12.164;2022-07-29T03:09:40;8.05;;;3.30;;
17026;SDS011;8630;50.500;12.164;2022-07-29T03:12:08;5.47;;;3.08;;
17026;SDS011;8630;50.500;12.164;2022-07-29T03:14:36;5.45;;;3.50;;
17026;SDS011;8630;50.500;12.164;2022-07-29T03:17:06;5.00;;;3.08;;
17026;SDS011;8630;50.500;12.164;2022-07-29T03:19:35;5.38;;;3.00;;
17026;SDS011;8630;50.500;12.164;2022-07-29T03:22:03;5.47;;;3.08;;
17026;SDS011;8630;50.500;12.164;2022-07-29T03:24:32;4.65;;;3.25;;
17026;SDS011;8630;50.500;12.164;2022-07-29T03:27:00;7.88;;;3.30;;
17026;SDS011;8630;50.500;12.164;2022-07-29T03:29:28;5.85;;;3.20;;
17026;SDS011;8630;50.500;12.164;2022-07-29T03:31:56;7.95;;;3.22;;
17026;SDS011;8630;50.500;12.164;2022-07-29T03:34:27;4.85;;;3.45;;
17026;SDS011;8630;50.500;12.164;2022-07-29T03:36:54;3.90;;;3.40;;
17026;SDS011;8630;50.500;12.164;2022-07-29T03:39:21;4.18;;;3.58;;
17026;SDS011;8630;50.500;12.164;2022-07-29T03:41:52;4.20;;;3.50;;
17026;SDS011;8630;50.500;12.164;2022-07-29T03:44:22;5.07;;;3.28;;
17026;SDS011;8630;50.500;12.164;2022-07-29T03:46:57;6.82;;;3.72;;
17026;SDS011;8630;50.500;12.164;2022-07-29T03:49:28;3.50;;;3.20;;
17026;SDS011;8630;50.500;12.164;2022-07-29T03:51:57;6.43;;;3.45;;
17026;SDS011;8630;50.500;12.164;2022-07-29T03:54:25;6.30;;;3.90;;
17026;SDS011;8630;50.500;12.164;2022-07-29T03:56:53;4.60;;;3.63;;
17026;SDS011;8630;50.500;12.164;2022-07-29T03:59:22;6.32;;;3.45;;
17026;SDS011;8630;50.500;12.164;2022-07-29T04:01:51;5.15;;;3.55;;
17026;SDS011;8630;50.500;12.164;2022-07-29T04:04:19;5.85;;;3.42;;
17026;SDS011;8630;50.500;12.164;2022-07-29T04:06:48;4.70;;;3.50;;
17026;SDS011;8630;50.500;12.164;2022-07-29T04:09:15;4.47;;;3.40;;
17026;SDS011;8630;50.500;12.164;2022-07-29T04:11:42;6.75;;;3.80;;
17026;SDS011;8630;50.500;12.164;2022-07-29T04:14:10;7.18;;;3.63;;
17026;SDS011;8630;50.500;12.164;2022-07-29T04:16:37;6.22;;;3.58;;
17026;SDS011;8630;50.500;12.164;2022-07-29T04:19:04;6.35;;;3.55;;
17026;SDS011;8630;50.500;12.164;2022-07-29T04:21:31;8.25;;;3.60;;
17026;SDS011;8630;50.500;12.164;2022-07-29T04:24:04;5.72;;;3.33;;
17026;SDS011;8630;50.500;12.164;2022-07-29T04:26:32;4.75;;;3.95;;
17026;SDS011;8630;50.500;12.164;2022-07-29T04:29:00;6.60;;;3.35;;
17026;SDS011;8630;50.500;12.164;2022-07-29T04:31:28;5.47;;;3.55;;
17026;SDS011;8630;50.500;12.164;2022-07-29T04:33:55;6.20;;;3.28;;
17026;SDS011;8630;50.500;12.164;2022-07-29T04:36:23;5.65;;;3.83;;
17026;SDS011;8630;50.500;12.164;2022-07-29T04:38:50;6.45;;;3.88;;
17026;SDS011;8630;50.500;12.164;2022-07-29T04:41:19;7.10;;;4.60;;
17026;SDS011;8630;50.500;12.164;2022-07-29T04:43:46;8.40;;;4.32;;
17026;SDS011;8630;50.500;12.164;2022-07-29T04:46:13;5.80;;;3.83;;
17026;SDS011;8630;50.500;12.164;2022-07-29T04:48:41;6.18;;;3.80;;
17026;SDS011;8630;50.500;12.164;2022-07-29T04:51:08;7.05;;;3.97;;
17026;SDS011;8630;50.500;12.164;2022-07-29T04:53:35;6.75;;;4.35;;
17026;SDS011;8630;50.500;12.164;2022-07-29T04:56:02;5.90;;;4.00;;
17026;SDS011;8630;50.500;12.164;2022-07-29T04:58:32;9.52;;;4.43;;
17026;SDS011;8630;50.500;12.164;2022-07-29T05:01:00;7.60;;;4.35;;
17026;SDS011;8630;50.500;12.164;2022-07-29T05:03:27;6.50;;;4.10;;
17026;SDS011;8630;50.500;12.164;2022-07-29T05:05:54;5.30;;;3.90;;
17026;SDS011;8630;50.500;12.164;2022-07-29T05:08:21;7.93;;;4.25;;
17026;SDS011;8630;50.500;12.164;2022-07-29T05:10:49;6.20;;;4.32;;
17026;SDS011;8630;50.500;12.164;2022-07-29T05:13:16;5.22;;;4.03;;
17026;SDS011;8630;50.500;12.164;2022-07-29T05:15:44;8.30;;;4.88;;
17026;SDS011;8630;50.500;12.164;2022-07-29T05:18:11;4.95;;;4.10;;
17026;SDS011;8630;50.500;12.164;2022-07-29T05:20:39;6.13;;;3.80;;
17026;SDS011;8630;50.500;12.164;2022-07-29T05:23:06;5.55;;;4.25;;
17026;SDS011;8630;50.500;12.164;2022-07-29T05:25:34;4.80;;;3.83;;
17026;SDS011;8630;50.500;12.164;2022-07-29T05:28:01;7.53;;;4.20;;
17026;SDS011;8630;50.500;12.164;2022-07-29T05:30:28;6.82;;;3.38;;
17026;SDS011;8630;50.500;12.164;2022-07-29T05:32:56;8.73;;;4.35;;
17026;SDS011;8630;50.500;12.164;2022-07-29T05:35:23;5.50;;;3.70;;
17026;SDS011;8630;50.500;12.164;2022-07-29T05:37:50;6.32;;;4.13;;
17026;SDS011;8630;50.500;12.164;2022-07-29T05:40:17;5.85;;;3.70;;
17026;SDS011;8630;50.500;12.164;2022-07-29T05:42:45;4.65;;;4.13;;
17026;SDS011;8630;50.500;12.164;2022-07-29T05:45:12;8.10;;;3.50;;
17026;SDS011;8630;50.500;12.164;2022-07-29T05:47:39;6.30;;;4.28;;
17026;SDS011;8630;50.500;12.164;2022-07-29T05:50:08;5.95;;;4.22;;
17026;SDS011;8630;50.500;12.164;2022-07-29T05:52:35;7.80;;;4.00;;
17026;SDS011;8630;50.500;12.164;2022-07-29T05:55:03;6.60;;;4.00;;
17026;SDS011;8630;50.500;12.164;2022-07-29T05:57:31;5.38;;;3.75;;
17026;SDS011;8630;50.500;12.164;2022-07-29T06:00:00;7.68;;;4.00;;
17026;SDS011;8630;50.500;12.164;2022-07-29T06:02:37;7.88;;;3.95;;
17026;SDS011;8630;50.500;12.164;2022-07-29T06:05:04;4.97;;;3.90;;
17026;SDS011;8630;50.500;12.164;2022-07-29T06:07:33;6.70;;;4.05;;
17026;SDS011;8630;50.500;12.164;2022-07-29T06:10:01;10.18;;;4.45;;
17026;SDS011;8630;50.500;12.164;2022-07-29T06:12:28;5.93;;;3.70;;
17026;SDS011;8630;50.500;12.164;2022-07-29T06:14:55;9.55;;;4.43;;
17026;SDS011;8630;50.500;12.164;2022-07-29T06:17:23;6.85;;;4.13;;
17026;SDS011;8630;50.500;12.164;2022-07-29T06:19:50;6.13;;;3.53;;
17026;SDS011;8630;50.500;12.164;2022-07-29T06:22:17;6.38;;;3.95;;
17026;SDS011;8630;50.500;12.164;2022-07-29T06:24:45;7.18;;;3.60;;
17026;SDS011;8630;50.500;12.164;2022-07-29T06:27:13;4.57;;;3.15;;
17026;SDS011;8630;50.500;12.164;2022-07-29T06:29:39;5.75;;;3.53;;
17026;SDS011;8630;50.500;12.164;2022-07-29T06:32:11;10.82;;;3.95;;
17026;SDS011;8630;50.500;12.164;2022-07-29T06:34:38;5.68;;;3.00;;
17026;SDS011;8630;50.500;12.164;2022-07-29T06:37:06;5.30;;;3.13;;
17026;SDS011;8630;50.500;12.164;2022-07-29T06:39:33;6.57;;;3.08;;
17026;SDS011;8630;50.500;12.164;2022-07-29T06:42:05;6.25;;;3.28;;
17026;SDS011;8630;50.500;12.164;2022-07-29T06:44:34;6.65;;;3.35;;
17026;SDS011;8630;50.500;12.164;2022-07-29T06:47:01;4.25;;;3.17;;
17026;SDS011;8630;50.500;12.164;2022-07-29T06:49:31;4.05;;;2.70;;
17026;SDS011;8630;50.500;12.164;2022-07-29T06:51:58;3.55;;;2.72;;
17026;SDS011;8630;50.500;12.164;2022-07-29T06:54:25;5.57;;;2.97;;
17026;SDS011;8630;50.500;12.164;2022-07-29T06:56:52;5.40;;;3.10;;
17026;SDS011;8630;50.500;12.164;2022-07-29T06:59:21;4.90;;;3.03;;
17026;SDS011;8630;50.500;12.164;2022-07-29T07:01:48;5.70;;;2.45;;
17026;SDS011;8630;50.500;12.164;2022-07-29T07:04:15;5.65;;;2.85;;
17026;SDS011;8630;50.500;12.164;2022-07-29T07:06:42;3.13;;;2.83;;
17026;SDS011;8630;50.500;12.164;2022-07-29T07:09:12;7.22;;;3.08;;
17026;SDS011;8630;50.500;12.164;2022-07-29T07:11:40;4.72;;;2.67;;
17026;SDS011;8630;50.500;12.164;2022-07-29T07:14:07;4.63;;;3.03;;
17026;SDS011;8630;50.500;12.164;2022-07-29T07:16:36;5.65;;;2.90;;
17026;SDS011;8630;50.500;12.164;2022-07-29T07:19:03;4.35;;;2.50;;
17026;SDS011;8630;50.500;12.164;2022-07-29T07:21:30;5.20;;;2.90;;
17026;SDS011;8630;50.500;12.164;2022-07-29T07:24:01;5.18;;;2.75;;
17026;SDS011;8630;50.500;12.164;2022-07-29T07:26:28;3.85;;;2.47;;
17026;SDS011;8630;50.500;12.164;2022-07-29T07:28:55;3.55;;;2.70;;
17026;SDS011;8630;50.500;12.164;2022-07-29T07:31:22;7.70;;;2.50;;
17026;SDS011;8630;50.500;12.164;2022-07-29T07:33:51;4.35;;;2.50;;
17026;SDS011;8630;50.500;12.164;2022-07-29T07:36:19;3.97;;;2.35;;
17026;SDS011;8630;50.500;12.164;2022-07-29T07:38:46;4.13;;;2.50;;
17026;SDS011;8630;50.500;12.164;2022-07-29T07:41:15;4.72;;;2.92;;
17026;SDS011;8630;50.500;12.164;2022-07-29T07:43:42;3.40;;;2.55;;
17026;SDS011;8630;50.500;12.164;2022-07-29T07:46:09;3.60;;;2.65;;
17026;SDS011;8630;50.500;12.164;2022-07-29T07:48:36;6.57;;;2.78;;
17026;SDS011;8630;50.500;12.164;2022-07-29T07:51:04;3.65;;;2.40;;
17026;SDS011;8630;50.500;12.164;2022-07-29T07:53:32;3.50;;;2.30;;
17026;SDS011;8630;50.500;12.164;2022-07-29T07:55:59;4.47;;;2.30;;
17026;SDS011;8630;50.500;12.164;2022-07-29T07:58:27;4.53;;;3.10;;
17026;SDS011;8630;50.500;12.164;2022-07-29T08:00:54;5.00;;;2.50;;
17026;SDS011;8630;50.500;12.164;2022-07-29T08:03:22;3.50;;;2.50;;
17026;SDS011;8630;50.500;12.164;2022-07-29T08:05:49;5.70;;;2.63;;
17026;SDS011;8630;50.500;12.164;2022-07-29T08:08:18;3.65;;;2.45;;
17026;SDS011;8630;50.500;12.164;2022-07-29T08:10:45;3.55;;;2.55;;
17026;SDS011;8630;50.500;12.164;2022-07-29T08:13:19;3.13;;;2.30;;
17026;SDS011;8630;50.500;12.164;2022-07-29T08:15:47;4.45;;;2.50;;
17026;SDS011;8630;50.500;12.164;2022-07-29T08:18:24;5.20;;;2.40;;
17026;SDS011;8630;50.500;12.164;2022-07-29T08:20:52;4.30;;;2.60;;
17026;SDS011;8630;50.500;12.164;2022-07-29T08:23:21;4.60;;;2.40;;
17026;SDS011;8630;50.500;12.164;2022-07-29T08:25:48;5.47;;;3.03;;
17026;SDS011;8630;50.500;12.164;2022-07-29T08:28:16;3.60;;;2.50;;
17026;SDS011;8630;50.500;12.164;2022-07-29T08:30:44;3.65;;;2.45;;
17026;SDS011;8630;50.500;12.164;2022-07-29T08:33:12;3.55;;;2.20;;
17026;SDS011;8630;50.500;12.164;2022-07-29T08:35:40;3.88;;;2.13;;
17026;SDS011;8630;50.500;12.164;2022-07-29T08:38:07;4.78;;;2.58;;
17026;SDS011;8630;50.500;12.164;2022-07-29T08:40:37;2.58;;;2.25;;
17026;SDS011;8630;50.500;12.164;2022-07-29T08:43:04;2.40;;;2.13;;
17026;SDS011;8630;50.500;12.164;2022-07-29T08:45:35;4.72;;;2.15;;
17026;SDS011;8630;50.500;12.164;2022-07-29T08:48:11;4.00;;;2.10;;
17026;SDS011;8630;50.500;12.164;2022-07-29T08:50:39;3.53;;;2.17;;
17026;SDS011;8630;50.500;12.164;2022-07-29T08:53:09;3.85;;;2.25;;
17026;SDS011;8630;50.500;12.164;2022-07-29T08:55:39;2.97;;;2.22;;
17026;SDS011;8630;50.500;12.164;2022-07-29T08:58:08;5.38;;;3.47;;
17026;SDS011;8630;50.500;12.164;2022-07-29T09:00:41;2.60;;;2.40;;
17026;SDS011;8630;50.500;12.164;2022-07-29T09:03:10;4.18;;;2.53;;
17026;SDS011;8630;50.500;12.164;2022-07-29T09:05:41;3.78;;;2.65;;
17026;SDS011;8630;50.500;12.164;2022-07-29T09:08:09;8.07;;;3.00;;
17026;SDS011;8630;50.500;12.164;2022-07-29T09:10:36;4.57;;;2.47;;
17026;SDS011;8630;50.500;12.164;2022-07-29T09:13:05;4.45;;;2.45;;
17026;SDS011;8630;50.500;12.164;2022-07-29T09:15:32;13.70;;;3.70;;
17026;SDS011;8630;50.500;12.164;2022-07-29T09:17:59;2.80;;;2.58;;
17026;SDS011;8630;50.500;12.164;2022-07-29T09:20:28;4.35;;;2.53;;
17026;SDS011;8630;50.500;12.164;2022-07-29T09:23:16;6.25;;;2.65;;
17026;SDS011;8630;50.500;12.164;2022-07-29T09:25:43;4.13;;;2.58;;
17026;SDS011;8630;50.500;12.164;2022-07-29T09:28:12;3.28;;;2.40;;
17026;SDS011;8630;50.500;12.164;2022-07-29T09:30:49;6.30;;;3.85;;
17026;SDS011;8630;50.500;12.164;2022-07-29T09:33:17;4.50;;;3.22;;
17026;SDS011;8630;50.500;12.164;2022-07-29T09:35:45;4.13;;;2.88;;
17026;SDS011;8630;50.500;12.164;2022-07-29T09:38:12;5.72;;;2.72;;
17026;SDS011;8630;50.500;12.164;2022-07-29T09:40:40;5.80;;;3.03;;
17026;SDS011;8630;50.500;12.164;2022-07-29T09:43:12;2.78;;;2.58;;
17026;SDS011;8630;50.500;12.164;2022-07-29T09:45:39;4.13;;;2.47;;
17026;SDS011;8630;50.500;12.164;2022-07-29T09:48:16;4.80;;;2.65;;
17026;SDS011;8630;50.500;12.164;2022-07-29T09:50:45;2.90;;;2.50;;
17026;SDS011;8630;50.500;12.164;2022-07-29T09:53:29;6.13;;;2.80;;
17026;SDS011;8630;50.500;12.164;2022-07-29T09:55:57;7.10;;;3.20;;
17026;SDS011;8630;50.500;12.164;2022-07-29T09:58:26;2.47;;;2.28;;
17026;SDS011;8630;50.500;12.164;2022-07-29T10:00:54;2.83;;;2.47;;
17026;SDS011;8630;50.500;12.164;2022-07-29T10:03:23;4.90;;;3.00;;
17026;SDS011;8630;50.500;12.164;2022-07-29T10:06:06;4.97;;;2.30;;
17026;SDS011;8630;50.500;12.164;2022-07-29T10:08:36;4.45;;;2.60;;
17026;SDS011;8630;50.500;12.164;2022-07-29T10:11:12;3.15;;;2.85;;
17026;SDS011;8630;50.500;12.164;2022-07-29T10:13:44;3.38;;;2.80;;
17026;SDS011;8630;50.500;12.164;2022-07-29T10:16:12;4.57;;;3.17;;
17026;SDS011;8630;50.500;12.164;2022-07-29T10:18:41;3.08;;;2.78;;
17026;SDS011;8630;50.500;12.164;2022-07-29T10:21:09;3.03;;;2.78;;
17026;SDS011;8630;50.500;12.164;2022-07-29T10:23:36;3.63;;;3.00;;
17026;SDS011;8630;50.500;12.164;2022-07-29T10:26:04;3.33;;;3.08;;
17026;SDS011;8630;50.500;12.164;2022-07-29T10:28:32;5.22;;;3.33;;
17026;SDS011;8630;50.500;12.164;2022-07-29T10:31:03;6.00;;;3.00;;
17026;SDS011;8630;50.500;12.164;2022-07-29T10:33:37;3.50;;;3.25;;
17026;SDS011;8630;50.500;12.164;2022-07-29T10:36:17;3.28;;;2.85;;
17026;SDS011;8630;50.500;12.164;2022-07-29T10:38:52;3.72;;;3.00;;
17026;SDS011;8630;50.500;12.164;2022-07-29T10:41:33;3.63;;;2.97;;
17026;SDS011;8630;50.500;12.164;2022-07-29T10:44:16;3.55;;;3.25;;
17026;SDS011;8630;50.500;12.164;2022-07-29T10:46:46;3.00;;;2.70;;
17026;SDS011;8630;50.500;12.164;2022-07-29T10:49:14;4.30;;;2.92;;
17026;SDS011;8630;50.500;12.164;2022-07-29T10:54:41;3.30;;;2.90;;
17026;SDS011;8630;50.500;12.164;2022-07-29T10:57:10;3.15;;;2.85;;
17026;SDS011;8630;50.500;12.164;2022-07-29T10:59:51;3.55;;;2.92;;
17026;SDS011;8630;50.500;12.164;2022-07-29T11:02:42;3.10;;;2.88;;
17026;SDS011;8630;50.500;12.164;2022-07-29T11:05:10;3.58;;;3.05;;
17026;SDS011;8630;50.500;12.164;2022-07-29T11:07:39;5.25;;;3.20;;
17026;SDS011;8630;50.500;12.164;2022-07-29T11:10:27;3.72;;;3.20;;
17026;SDS011;8630;50.500;12.164;2022-07-29T11:12:54;3.53;;;3.15;;
17026;SDS011;8630;50.500;12.164;2022-07-29T11:15:21;3.70;;;3.40;;
17026;SDS011;8630;50.500;12.164;2022-07-29T11:18:04;3.65;;;3.20;;
17026;SDS011;8630;50.500;12.164;2022-07-29T11:20:38;3.38;;;3.08;;
17026;SDS011;8630;50.500;12.164;2022-07-29T11:23:23;4.15;;;3.30;;
17026;SDS011;8630;50.500;12.164;2022-07-29T11:28:48;3.47;;;3.20;;
17026;SDS011;8630;50.500;12.164;2022-07-29T11:31:34;3.58;;;2.90;;
17026;SDS011;8630;50.500;12.164;2022-07-29T11:34:17;3.40;;;3.10;;
17026;SDS011;8630;50.500;12.164;2022-07-29T11:39:43;4.25;;;3.17;;
17026;SDS011;8630;50.500;12.164;2022-07-29T11:45:05;6.28;;;3.30;;
17026;SDS011;8630;50.500;12.164;2022-07-29T11:47:34;3.95;;;2.90;;
17026;SDS011;8630;50.500;12.164;2022-07-29T11:50:05;5.07;;;3.30;;
17026;SDS011;8630;50.500;12.164;2022-07-29T11:52:34;3.28;;;2.97;;
17026;SDS011;8630;50.500;12.164;2022-07-29T11:55:08;3.97;;;3.42;;
17026;SDS011;8630;50.500;12.164;2022-07-29T11:57:37;3.50;;;3.17;;
17026;SDS011;8630;50.500;12.164;2022-07-29T12:00:12;3.78;;;3.00;;
17026;SDS011;8630;50.500;12.164;2022-07-29T12:02:48;3.50;;;3.13;;
17026;SDS011;8630;50.500;12.164;2022-07-29T12:05:17;3.58;;;2.75;;
17026;SDS011;8630;50.500;12.164;2022-07-29T12:07:45;4.10;;;3.10;;
17026;SDS011;8630;50.500;12.164;2022-07-29T12:10:14;3.78;;;3.47;;
17026;SDS011;8630;50.500;12.164;2022-07-29T12:12:41;4.00;;;3.13;;
17026;SDS011;8630;50.500;12.164;2022-07-29T12:15:15;3.13;;;2.92;;
17026;SDS011;8630;50.500;12.164;2022-07-29T12:17:45;3.00;;;2.70;;
17026;SDS011;8630;50.500;12.164;2022-07-29T12:20:13;3.53;;;3.22;;
17026;SDS011;8630;50.500;12.164;2022-07-29T12:22:49;3.78;;;3.08;;
17026;SDS011;8630;50.500;12.164;2022-07-29T12:25:18;3.38;;;3.10;;
17026;SDS011;8630;50.500;12.164;2022-07-29T12:27:56;3.03;;;2.72;;
17026;SDS011;8630;50.500;12.164;2022-07-29T12:30:33;2.97;;;2.78;;
17026;SDS011;8630;50.500;12.164;2022-07-29T12:33:10;4.78;;;2.85;;
17026;SDS011;8630;50.500;12.164;2022-07-29T12:35:46;3.72;;;2.78;;
17026;SDS011;8630;50.500;12.164;2022-07-29T12:38:17;4.18;;;2.90;;
17026;SDS011;8630;50.500;12.164;2022-07-29T12:40:46;4.82;;;3.15;;
17026;SDS011;8630;50.500;12.164;2022-07-29T12:43:14;3.20;;;2.90;;
17026;SDS011;8630;50.500;12.164;2022-07-29T12:45:43;5.05;;;3.60;;
17026;SDS011;8630;50.500;12.164;2022-07-29T12:48:13;3.22;;;2.83;;
17026;SDS011;8630;50.500;12.164;2022-07-29T12:50:53;4.55;;;3.13;;
17026;SDS011;8630;50.500;12.164;2022-07-29T12:53:23;3.40;;;3.03;;
17026;SDS011;8630;50.500;12.164;2022-07-29T12:55:51;4.28;;;2.90;;
17026;SDS011;8630;50.500;12.164;2022-07-29T12:58:26;2.70;;;2.42;;
17026;SDS011;8630;50.500;12.164;2022-07-29T13:01:01;3.35;;;3.13;;
17026;SDS011;8630;50.500;12.164;2022-07-29T13:03:47;3.15;;;2.92;;
17026;SDS011;8630;50.500;12.164;2022-07-29T13:06:28;4.18;;;2.97;;
17026;SDS011;8630;50.500;12.164;2022-07-29T13:09:05;3.55;;;2.90;;
17026;SDS011;8630;50.500;12.164;2022-07-29T13:11:35;3.30;;;2.80;;
17026;SDS011;8630;50.500;12.164;2022-07-29T13:14:03;6.30;;;2.80;;
17026;SDS011;8630;50.500;12.164;2022-07-29T13:16:31;4.47;;;3.30;;
17026;SDS011;8630;50.500;12.164;2022-07-29T13:19:05;7.30;;;3.40;;
17026;SDS011;8630;50.500;12.164;2022-07-29T13:21:36;8.68;;;3.13;;
17026;SDS011;8630;50.500;12.164;2022-07-29T13:24:06;6.07;;;2.72;;
17026;SDS011;8630;50.500;12.164;2022-07-29T13:26:34;14.05;;;3.72;;
17026;SDS011;8630;50.500;12.164;2022-07-29T13:29:05;12.55;;;3.63;;
17026;SDS011;8630;50.500;12.164;2022-07-29T13:31:33;6.97;;;3.67;;
17026;SDS011;8630;50.500;12.164;2022-07-29T13:34:00;5.03;;;3.22;;
17026;SDS011;8630;50.500;12.164;2022-07-29T13:36:27;4.85;;;3.92;;
17026;SDS011;8630;50.500;12.164;2022-07-29T13:38:54;7.05;;;4.38;;
17026;SDS011;8630;50.500;12.164;2022-07-29T13:41:24;3.30;;;3.03;;
17026;SDS011;8630;50.500;12.164;2022-07-29T13:43:53;20.42;;;4.07;;
17026;SDS011;8630;50.500;12.164;2022-07-29T13:46:20;2.97;;;2.70;;
17026;SDS011;8630;50.500;12.164;2022-07-29T13:48:47;2.75;;;2.50;;
17026;SDS011;8630;50.500;12.164;2022-07-29T13:51:14;4.82;;;2.63;;
17026;SDS011;8630;50.500;12.164;2022-07-29T13:53:41;2.50;;;2.30;;
17026;SDS011;8630;50.500;12.164;2022-07-29T13:56:08;2.83;;;2.55;;
17026;SDS011;8630;50.500;12.164;2022-07-29T13:58:36;2.67;;;2.03;;
17026;SDS011;8630;50.500;12.164;2022-07-29T14:01:03;4.32;;;1.90;;
17026;SDS011;8630;50.500;12.164;2022-07-29T14:03:30;1.88;;;1.45;;
17026;SDS011;8630;50.500;12.164;2022-07-29T14:05:57;1.60;;;1.50;;
17026;SDS011;8630;50.500;12.164;2022-07-29T14:08:25;3.40;;;1.92;;
17026;SDS011;8630;50.500;12.164;2022-07-29T14:10:53;2.13;;;1.92;;
17026;SDS011;8630;50.500;12.164;2022-07-29T14:13:20;4.00;;;2.60;;
17026;SDS011;8630;50.500;12.164;2022-07-29T14:15:48;2.70;;;2.50;;
17026;SDS011;8630;50.500;12.164;2022-07-29T14:18:15;3.30;;;2.83;;
17026;SDS011;8630;50.500;12.164;2022-07-29T14:20:42;3.45;;;2.72;;
17026;SDS011;8630;50.500;12.164;2022-07-29T14:23:09;5.78;;;3.35;;
17026;SDS011;8630;50.500;12.164;2022-07-29T14:25:36;3.05;;;2.75;;
17026;SDS011;8630;50.500;12.164;2022-07-29T14:28:04;3.05;;;2.60;;
17026;SDS011;8630;50.500;12.164;2022-07-29T14:30:31;2.58;;;2.15;;
17026;SDS011;8630;50.500;12.164;2022-07-29T14:33:00;2.50;;;2.30;;
17026;SDS011;8630;50.500;12.164;2022-07-29T14:35:28;2.25;;;2.05;;
17026;SDS011;8630;50.500;12.164;2022-07-29T14:37:55;2.60;;;2.10;;
17026;SDS011;8630;50.500;12.164;2022-07-29T14:40:22;3.85;;;2.83;;
17026;SDS011;8630;50.500;12.164;2022-07-29T14:42:50;2.47;;;2.20;;
17026;SDS011;8630;50.500;12.164;2022-07-29T14:45:18;3.28;;;2.30;;
17026;SDS011;8630;50.500;12.164;2022-07-29T14:47:45;2.45;;;2.00;;
17026;SDS011;8630;50.500;12.164;2022-07-29T14:50:13;2.53;;;2.22;;
17026;SDS011;8630;50.500;12.164;2022-07-29T14:52:41;2.30;;;2.10;;
17026;SDS011;8630;50.500;12.164;2022-07-29T14:55:08;2.55;;;2.35;;
17026;SDS011;8630;50.500;12.164;2022-07-29T14:57:35;2.80;;;2.20;;
17026;SDS011;8630;50.500;12.164;2022-07-29T15:00:04;3.97;;;2.50;;
17026;SDS011;8630;50.500;12.164;2022-07-29T15:02:32;2.47;;;2.28;;
17026;SDS011;8630;50.500;12.164;2022-07-29T15:04:59;3.95;;;2.20;;
17026;SDS011;8630;50.500;12.164;2022-07-29T15:07:28;2.40;;;2.20;;
17026;SDS011;8630;50.500;12.164;2022-07-29T15:09:55;2.40;;;2.20;;
17026;SDS011;8630;50.500;12.164;2022-07-29T15:12:22;2.80;;;2.45;;
17026;SDS011;8630;50.500;12.164;2022-07-29T15:14:49;2.65;;;2.45;;